Time;durP1;ratioP1;P1;durP2;ratioP2;P2;SDS_P1;SDS_P2;PMS_P1;PMS_P2;Temp;Humidity;BMP_temperature;BMP_pressure;BME280_temperature;BME280_humidity;BME280_pressure;Samples;Min_cycle;Max_cycle;Signal;HPM_P1;HPM_P2
2022/10/11 00:01:24;;;;;;;10.30;5.10;;;;;;;10.12;79.80;99521.02;24509;1332;3050579;-68
2022/10/11 00:03:53;;;;;;;11.80;5.30;;;;;;;9.90;79.61;99531.35;24602;1333;3028284;-68
2022/10/11 00:06:23;;;;;;;10.40;5.50;;;;;;;9.81;79.93;99530.31;24556;1333;3053056;-68
2022/10/11 00:08:55;;;;;;;10.90;5.30;;;;;;;9.46;80.81;99527.85;24551;1333;3026827;-68
2022/10/11 00:11:24;;;;;;;9.70;5.10;;;;;;;9.17;81.91;99525.43;24554;1326;3028676;-69
2022/10/11 00:13:55;;;;;;;7.00;3.40;;;;;;;9.12;81.91;99533.35;24531;1340;3054704;-70
2022/10/11 00:16:25;;;;;;;7.00;3.20;;;;;;;9.55;80.74;99520.17;24570;1332;3028817;-68
2022/10/11 00:18:55;;;;;;;8.80;4.90;;;;;;;9.82;79.25;99528.86;24568;1327;3029402;-68
2022/10/11 00:21:24;;;;;;;10.40;4.80;;;;;;;9.78;79.19;99528.05;24532;1332;3026503;-68
2022/10/11 00:23:53;;;;;;;12.40;5.40;;;;;;;9.54;79.62;99535.80;24568;1324;3050157;-66
2022/10/11 00:26:22;;;;;;;10.10;4.90;;;;;;;9.24;80.94;99531.86;24607;1326;3026807;-65
2022/10/11 00:28:51;;;;;;;8.60;5.00;;;;;;;9.12;81.52;99529.55;24566;1333;3054283;-67
2022/10/11 00:31:21;;;;;;;6.30;3.50;;;;;;;8.96;82.21;99530.55;24546;1333;3028118;-64
2022/10/11 00:33:50;;;;;;;6.70;3.50;;;;;;;9.49;81.19;99533.30;24551;1326;3024720;-65
2022/10/11 00:36:19;;;;;;;8.60;3.40;;;;;;;10.06;78.69;99530.27;24481;1336;3026247;-65
2022/10/11 00:38:49;;;;;;;6.70;2.90;;;;;;;9.95;77.67;99536.70;24564;1333;3028631;-66
2022/10/11 00:41:18;;;;;;;4.80;2.60;;;;;;;9.78;78.02;99536.58;24547;1333;3024849;-65
2022/10/11 00:43:46;;;;;;;3.70;2.20;;;;;;;9.52;78.76;99534.69;24564;1333;3048402;-66
2022/10/11 00:46:18;;;;;;;7.10;2.30;;;;;;;9.21;79.38;99536.73;24546;1333;3026980;-65
2022/10/11 00:48:50;;;;;;;4.30;2.90;;;;;;;9.05;79.63;99537.73;24531;1332;3053618;-67
2022/10/11 00:51:21;;;;;;;3.10;1.50;;;;;;;9.11;79.80;99531.15;24561;1337;3027428;-67
2022/10/11 00:53:50;;;;;;;3.50;2.20;;;;;;;9.80;78.12;99530.02;24506;1333;3026433;-66
2022/10/11 00:56:26;;;;;;;7.10;2.90;;;;;;;10.12;75.40;99530.16;24571;1338;3025820;-66
2022/10/11 00:58:55;;;;;;;4.60;3.00;;;;;;;9.87;75.40;99539.58;24552;1333;3049234;-67
2022/10/11 01:01:24;;;;;;;11.40;4.30;;;;;;;9.62;76.56;99532.77;24506;1333;3025801;-65
2022/10/11 01:03:54;;;;;;;6.90;3.20;;;;;;;9.50;76.92;99536.95;24465;1333;3052114;-68
2022/10/11 01:06:25;;;;;;;4.70;2.50;;;;;;;9.29;77.17;99541.38;24544;1343;3028064;-67
2022/10/11 01:08:54;;;;;;;9.30;2.80;;;;;;;9.09;77.55;99538.60;24536;1332;3025522;-68
2022/10/11 01:11:23;;;;;;;3.70;2.20;;;;;;;8.96;77.71;99544.53;24591;1332;3051268;-69
2022/10/11 01:14:43;;;;;;;2.50;1.40;;;;;;;8.89;78.60;99544.02;24492;1333;3051163;-67
2022/10/11 01:17:19;;;;;;;3.50;1.90;;;;;;;9.62;76.16;99541.00;24557;1333;3070222;-69
2022/10/11 01:20:20;;;;;;;5.80;2.80;;;;;;;9.84;74.99;99548.81;24564;1326;3051511;-69
2022/10/11 01:22:55;;;;;;;5.20;3.50;;;;;;;9.60;74.82;99548.97;24548;1333;3056625;-67
2022/10/11 01:25:43;;;;;;;8.50;4.30;;;;;;;9.37;75.44;99552.14;24524;1334;3055558;-70
2022/10/11 01:29:02;;;;;;;8.30;4.50;;;;;;;9.26;75.81;99551.14;24574;1332;3054009;-67
2022/10/11 01:31:52;;;;;;;7.60;3.80;;;;;;;8.94;76.36;99553.88;24375;1339;3050743;-65
2022/10/11 01:34:27;;;;;;;6.90;3.40;;;;;;;8.85;76.99;99555.20;24554;1340;3052892;-69
2022/10/11 01:37:21;;;;;;;5.50;2.00;;;;;;;8.83;76.89;99552.73;24532;1332;3049976;-69
2022/10/11 01:39:58;;;;;;;6.00;2.10;;;;;;;9.52;75.37;99564.77;24522;1321;3068938;-67
2022/10/11 01:42:27;;;;;;;5.10;2.90;;;;;;;9.74;74.09;99566.01;24454;1330;3051265;-65
2022/10/11 01:44:57;;;;;;;10.20;3.90;;;;;;;9.68;74.23;99568.65;24519;1336;3028165;-68
2022/10/11 01:47:26;;;;;;;7.50;4.00;;;;;;;9.55;74.76;99565.14;24551;1319;3026524;-68
2022/10/11 01:49:58;;;;;;;6.10;4.00;;;;;;;9.31;75.80;99564.84;24531;1340;3028486;-69
2022/10/11 01:52:29;;;;;;;7.20;4.30;;;;;;;9.06;76.36;99572.30;24555;1333;3028691;-67
2022/10/11 01:55:19;;;;;;;9.50;4.90;;;;;;;8.92;76.81;99571.29;24528;1334;3026811;-69
2022/10/11 01:57:55;;;;;;;12.80;5.80;;;;;;;8.73;77.57;99575.41;24557;1332;3051434;-70
2022/10/11 02:00:27;;;;;;;13.60;4.50;;;;;;;8.74;77.53;99573.59;24587;1324;3069421;-66
2022/10/11 02:03:41;;;;;;;6.90;3.50;;;;;;;9.37;76.17;99567.33;24559;1324;3026083;-68
2022/10/11 02:06:16;;;;;;;7.10;3.50;;;;;;;9.76;73.56;99570.13;24528;1324;3056954;-65
2022/10/11 02:09:05;;;;;;;8.40;3.80;;;;;;;9.83;73.45;99567.79;24520;1326;3052919;-66
2022/10/11 02:11:34;;;;;;;9.80;4.40;;;;;;;9.56;73.99;99572.45;24536;1325;3052923;-67
2022/10/11 02:14:19;;;;;;;9.00;4.80;;;;;;;9.20;74.86;99575.71;24519;1336;3026676;-71
2022/10/11 02:16:52;;;;;;;7.50;4.70;;;;;;;8.94;75.87;99574.50;24541;1334;3054804;-66
2022/10/11 02:19:24;;;;;;;7.70;3.50;;;;;;;8.93;75.75;99575.28;24556;1333;3025868;-66
2022/10/11 02:21:55;;;;;;;4.70;2.60;;;;;;;8.80;76.47;99586.71;24510;1333;3026269;-67
2022/10/11 02:24:27;;;;;;;4.70;2.00;;;;;;;8.75;77.36;99585.27;24565;1329;3027058;-67
2022/10/11 02:26:56;;;;;;;4.80;1.50;;;;;;;9.27;76.28;99584.84;24543;1319;3028348;-68
2022/10/11 02:29:26;;;;;;;6.30;1.90;;;;;;;9.53;75.27;99589.71;24487;1341;3026932;-66
2022/10/11 02:31:55;;;;;;;5.60;3.10;;;;;;;9.43;75.26;99584.30;24587;1333;3049774;-70
2022/10/11 02:34:38;;;;;;;7.20;3.00;;;;;;;9.15;76.25;99589.86;24547;1331;3026861;-67
2022/10/11 02:37:45;;;;;;;4.30;2.60;;;;;;;8.90;77.23;99595.80;24575;1326;3053186;-67
2022/10/11 02:40:25;;;;;;;3.00;2.10;;;;;;;8.66;78.60;99596.02;24530;1333;3054141;-66
2022/10/11 02:42:59;;;;;;;7.10;2.70;;;;;;;8.52;78.69;99600.73;24537;1337;3051656;-65
2022/10/11 02:45:48;;;;;;;4.80;1.70;;;;;;;8.39;79.94;99609.70;24566;1333;3054970;-65
2022/10/11 02:48:18;;;;;;;3.90;2.30;;;;;;;9.00;78.58;99600.40;24532;1331;3049650;-69
2022/10/11 02:50:47;;;;;;;4.10;2.40;;;;;;;9.51;76.12;99595.77;24512;1329;3027476;-65
2022/10/11 02:53:16;;;;;;;4.00;3.00;;;;;;;9.27;76.01;99595.82;24514;1332;3053686;-65
2022/10/11 02:55:46;;;;;;;4.70;3.50;;;;;;;9.09;76.43;99603.05;24552;1333;3028433;-67
2022/10/11 02:58:14;;;;;;;10.80;4.60;;;;;;;8.74;77.65;99602.77;24570;1339;3050641;-66
2022/10/11 03:00:44;;;;;;;7.00;4.30;;;;;;;8.41;78.85;99606.84;24593;1326;3026123;-69
2022/10/11 03:03:13;;;;;;;12.20;4.30;;;;;;;8.34;79.20;99603.67;24609;1335;3052023;-68
2022/10/11 03:05:43;;;;;;;10.30;3.10;;;;;;;8.30;79.80;99601.27;24571;1318;3026073;-66
2022/10/11 03:08:13;;;;;;;8.70;3.90;;;;;;;8.79;78.41;99597.41;24533;1336;3029508;-65
2022/10/11 03:10:42;;;;;;;8.00;4.60;;;;;;;9.18;75.95;99592.48;24547;1333;3027130;-68
2022/10/11 03:13:12;;;;;;;10.20;4.20;;;;;;;9.13;75.61;99590.08;24507;1332;3027084;-66
2022/10/11 03:15:42;;;;;;;7.10;3.60;;;;;;;8.90;76.13;99595.85;24504;1327;3027624;-66
2022/10/11 03:18:11;;;;;;;6.80;2.40;;;;;;;8.84;76.17;99590.05;24550;1326;3025695;-68
2022/10/11 03:20:40;;;;;;;3.80;2.00;;;;;;;8.60;77.05;99594.20;24523;1321;3068208;-65
2022/10/11 03:23:09;;;;;;;3.50;1.90;;;;;;;8.53;77.10;99598.22;24614;1324;3026497;-67
2022/10/11 03:25:38;;;;;;;2.90;1.80;;;;;;;8.29;78.23;99603.77;24579;1329;3049515;-66
2022/10/11 03:28:07;;;;;;;7.60;2.00;;;;;;;8.30;78.14;99603.48;24522;1323;3027544;-68
2022/10/11 03:30:36;;;;;;;6.30;1.90;;;;;;;8.98;77.04;99593.84;24572;1339;3053459;-67
2022/10/11 03:33:05;;;;;;;2.70;1.40;;;;;;;9.24;75.00;99596.88;24583;1331;3026333;-66
2022/10/11 03:35:34;;;;;;;4.10;1.10;;;;;;;9.15;74.83;99595.60;24553;1330;3051797;-66
2022/10/11 03:38:03;;;;;;;2.70;1.50;;;;;;;8.98;75.23;99595.80;24611;1330;3025844;-66
2022/10/11 03:40:32;;;;;;;3.20;1.50;;;;;;;8.67;76.16;99603.99;24520;1334;3054090;-65
2022/10/11 03:43:01;;;;;;;3.90;1.30;;;;;;;8.52;76.55;99611.02;24578;1334;3027871;-67
2022/10/11 03:45:30;;;;;;;1.70;1.20;;;;;;;8.36;77.56;99608.63;24568;1329;3053350;-65
2022/10/11 03:47:59;;;;;;;2.30;1.60;;;;;;;8.34;77.27;99607.53;24638;1329;3026193;-64
2022/10/11 03:50:28;;;;;;;2.10;1.10;;;;;;;8.26;77.44;99606.50;24557;1330;3057101;-69
2022/10/11 03:52:57;;;;;;;4.90;1.40;;;;;;;8.75;76.52;99596.55;24620;1331;3024808;-68
2022/10/11 03:55:26;;;;;;;3.50;1.40;;;;;;;9.23;74.51;99596.92;24554;1323;3048897;-66
2022/10/11 03:57:55;;;;;;;2.60;1.70;;;;;;;9.16;73.99;99600.08;24631;1330;3026860;-63
2022/10/11 04:00:24;;;;;;;4.80;1.90;;;;;;;8.95;74.10;99599.97;24539;1330;3068869;-66
2022/10/11 04:02:53;;;;;;;6.80;3.00;;;;;;;8.59;74.97;99604.38;24607;1330;3025945;-65
2022/10/11 04:05:22;;;;;;;4.60;2.70;;;;;;;8.44;75.91;99611.42;24589;1330;3050270;-65
2022/10/11 04:07:51;;;;;;;4.90;2.80;;;;;;;8.38;75.83;99612.90;24608;1323;3026891;-68
2022/10/11 04:10:20;;;;;;;6.70;3.20;;;;;;;8.21;76.62;99612.50;24603;1334;3027228;-64
2022/10/11 04:12:49;;;;;;;7.60;2.90;;;;;;;8.21;76.65;99622.30;24633;1335;3049195;-66
2022/10/11 04:15:18;;;;;;;7.40;2.80;;;;;;;8.15;76.66;99623.96;24577;1330;3029618;-66
2022/10/11 04:17:47;;;;;;;4.40;2.20;;;;;;;8.65;75.40;99621.04;24622;1329;3052688;-66
2022/10/11 04:20:16;;;;;;;5.10;2.30;;;;;;;9.04;73.60;99609.48;24584;1328;3028274;-66
2022/10/11 04:22:45;;;;;;;5.30;2.90;;;;;;;9.12;73.04;99617.62;24643;1323;3051366;-69
2022/10/11 04:25:15;;;;;;;4.90;2.70;;;;;;;9.01;73.00;99617.45;24621;1329;3028087;-66
2022/10/11 04:27:44;;;;;;;4.50;2.50;;;;;;;8.80;73.41;99628.66;24582;1319;3033210;-66
2022/10/11 04:30:16;;;;;;;5.20;2.70;;;;;;;8.59;73.98;99625.34;24610;1330;3050871;-67
2022/10/11 04:32:46;;;;;;;4.10;1.90;;;;;;;8.50;74.07;99632.41;24610;1323;3026773;-68
2022/10/11 04:35:15;;;;;;;4.00;2.20;;;;;;;8.33;74.90;99634.11;24649;1330;3026215;-65
2022/10/11 04:37:44;;;;;;;4.20;1.80;;;;;;;8.27;75.05;99636.99;24579;1330;3052468;-67
2022/10/11 04:40:13;;;;;;;2.50;1.20;;;;;;;8.23;75.32;99642.06;24610;1340;3026970;-68
2022/10/11 04:42:42;;;;;;;2.10;1.30;;;;;;;8.95;73.59;99636.64;24581;1327;3053231;-68
2022/10/11 04:45:11;;;;;;;2.70;1.60;;;;;;;9.21;71.95;99646.52;24616;1315;3027231;-68
2022/10/11 04:47:40;;;;;;;4.20;2.00;;;;;;;9.27;71.10;99639.73;24566;1323;3052310;-68
2022/10/11 04:50:09;;;;;;;3.60;1.70;;;;;;;8.97;71.52;99637.23;24598;1336;3027625;-69
2022/10/11 04:52:38;;;;;;;4.10;1.90;;;;;;;8.84;72.18;99639.64;24590;1315;3055174;-68
2022/10/11 04:55:09;;;;;;;7.10;2.50;;;;;;;8.75;72.34;99638.16;24565;1334;3028709;-68
2022/10/11 04:57:38;;;;;;;3.80;2.60;;;;;;;8.60;72.52;99646.08;24608;1330;3027028;-67
2022/10/11 05:00:08;;;;;;;4.70;2.60;;;;;;;8.35;73.57;99650.88;24606;1336;3025448;-69
2022/10/11 05:02:38;;;;;;;4.40;2.30;;;;;;;8.21;74.14;99652.64;24620;1333;3051825;-68
2022/10/11 05:05:08;;;;;;;4.80;2.10;;;;;;;8.18;74.57;99655.39;24567;1331;3026212;-66
2022/10/11 05:07:37;;;;;;;3.70;1.40;;;;;;;8.28;74.20;99646.73;24602;1331;3055864;-68
2022/10/11 05:10:07;;;;;;;3.80;1.80;;;;;;;8.91;72.88;99646.45;24580;1331;3026301;-68
2022/10/11 05:12:36;;;;;;;4.60;2.60;;;;;;;9.25;71.02;99645.40;24572;1331;3052311;-67
2022/10/11 05:15:06;;;;;;;4.60;2.40;;;;;;;9.32;70.63;99648.38;24526;1332;3026687;-69
2022/10/11 05:17:36;;;;;;;4.80;3.10;;;;;;;9.22;70.61;99653.27;24561;1327;3029009;-70
2022/10/11 05:20:05;;;;;;;6.90;3.10;;;;;;;8.97;71.18;99649.13;24605;1329;3025504;-66
2022/10/11 05:22:34;;;;;;;4.70;2.70;;;;;;;8.73;71.85;99654.52;24600;1326;3057974;-66
2022/10/11 05:25:04;;;;;;;5.50;2.60;;;;;;;8.55;72.28;99649.44;24738;1333;3026608;-69
2022/10/11 05:27:33;;;;;;;9.50;2.50;;;;;;;8.46;72.39;99659.47;24602;1338;3051584;-68
2022/10/11 05:30:02;;;;;;;5.00;2.40;;;;;;;8.38;73.20;99655.50;24633;1329;3026181;-70
2022/10/11 05:32:32;;;;;;;3.90;2.20;;;;;;;8.25;73.67;99669.88;24623;1329;3069183;-71
2022/10/11 05:35:04;;;;;;;2.90;1.50;;;;;;;8.15;74.23;99664.96;24629;1329;3028012;-67
2022/10/11 05:37:33;;;;;;;6.70;1.10;;;;;;;8.22;74.15;99660.96;24668;1338;3048742;-70
2022/10/11 05:40:03;;;;;;;4.20;1.20;;;;;;;8.86;72.27;99664.68;24573;1329;3025987;-69
2022/10/11 05:42:32;;;;;;;4.60;1.20;;;;;;;9.21;70.56;99656.61;24614;1333;3054016;-70
2022/10/11 05:45:01;;;;;;;2.70;1.20;;;;;;;9.30;69.52;99656.02;24606;1323;3026071;-67
2022/10/11 05:47:32;;;;;;;2.80;1.40;;;;;;;9.08;70.06;99658.52;24594;1329;3051784;-68
2022/10/11 05:50:01;;;;;;;4.20;1.70;;;;;;;8.71;70.91;99669.95;24564;1340;3029407;-66
2022/10/11 05:52:31;;;;;;;5.90;2.10;;;;;;;8.47;71.96;99674.09;24634;1340;3026700;-68
2022/10/11 05:55:02;;;;;;;5.50;1.80;;;;;;;8.27;72.72;99667.89;24581;1330;3026903;-69
2022/10/11 05:57:31;;;;;;;8.70;2.10;;;;;;;8.19;73.02;99667.91;24619;1335;3026769;-68
2022/10/11 06:00:00;;;;;;;7.00;2.50;;;;;;;8.09;73.68;99662.48;24616;1330;3026009;-71
2022/10/11 06:02:29;;;;;;;4.80;2.60;;;;;;;8.12;73.65;99664.40;24647;1324;3068993;-70
2022/10/11 06:04:57;;;;;;;5.70;2.50;;;;;;;7.93;74.29;99672.63;24579;1328;3027491;-70
2022/10/11 06:07:27;;;;;;;4.00;1.90;;;;;;;7.99;74.43;99670.25;24613;1323;3047884;-69
2022/10/11 06:09:56;;;;;;;5.50;2.10;;;;;;;8.56;72.56;99670.33;24590;1337;3026546;-70
2022/10/11 06:12:27;;;;;;;6.60;1.80;;;;;;;9.02;70.55;99672.98;24574;1322;3051401;-67
2022/10/11 06:14:58;;;;;;;4.70;2.10;;;;;;;8.90;70.13;99675.34;24625;1340;3029183;-67
2022/10/11 06:17:33;;;;;;;5.00;2.10;;;;;;;8.69;70.61;99670.59;24598;1333;3068381;-67
2022/10/11 06:20:03;;;;;;;4.00;2.20;;;;;;;8.49;71.33;99664.23;24558;1330;3028675;-69
2022/10/11 06:22:32;;;;;;;4.00;2.10;;;;;;;8.12;72.44;99675.25;24560;1329;3030787;-68
2022/10/11 06:25:02;;;;;;;6.00;2.10;;;;;;;8.14;72.82;99671.49;24530;1332;3029017;-69
2022/10/11 06:27:32;;;;;;;3.40;1.60;;;;;;;8.00;72.78;99665.48;24547;1334;3027791;-67
2022/10/11 06:30:01;;;;;;;4.10;1.50;;;;;;;8.03;72.62;99662.73;24626;1337;3026274;-69
2022/10/11 06:32:30;;;;;;;5.10;1.30;;;;;;;7.84;73.64;99667.27;24529;1330;3050879;-69
2022/10/11 06:34:59;;;;;;;3.00;1.50;;;;;;;7.84;73.88;99668.48;24582;1336;3026248;-69
2022/10/11 06:37:28;;;;;;;3.10;1.40;;;;;;;8.00;74.18;99671.24;24583;1313;3027510;-70
2022/10/11 06:39:57;;;;;;;2.20;1.50;;;;;;;8.61;72.01;99680.76;24598;1336;3051384;-72
2022/10/11 06:42:27;;;;;;;2.80;1.30;;;;;;;9.05;70.29;99682.27;24624;1331;3029020;-70
2022/10/11 06:44:55;;;;;;;2.50;1.30;;;;;;;9.05;69.69;99688.55;24605;1331;3026662;-68
2022/10/11 06:47:26;;;;;;;3.30;2.00;;;;;;;8.87;70.25;99684.03;24560;1330;3051831;-69
2022/10/11 06:49:55;;;;;;;3.10;1.60;;;;;;;8.81;70.81;99685.35;24591;1323;3028394;-70
2022/10/11 06:52:23;;;;;;;2.80;1.60;;;;;;;8.73;71.04;99682.66;24579;1323;3057695;-70
2022/10/11 06:54:52;;;;;;;2.70;1.60;;;;;;;8.86;70.61;99687.77;24586;1323;3028822;-70
2022/10/11 06:57:21;;;;;;;4.10;2.20;;;;;;;8.72;71.11;99696.48;24568;1330;3050085;-70
2022/10/11 06:59:50;;;;;;;6.40;2.10;;;;;;;8.79;71.21;99691.42;24579;1335;3026126;-71
2022/10/11 07:02:20;;;;;;;3.20;1.70;;;;;;;8.92;71.30;99690.24;24595;1329;3068437;-68
2022/10/11 07:04:48;;;;;;;4.30;2.20;;;;;;;8.97;70.99;99695.74;24626;1331;3026653;-71
2022/10/11 07:07:17;;;;;;;6.80;2.40;;;;;;;8.73;71.41;99698.16;24633;1333;3025884;-68
2022/10/11 07:09:47;;;;;;;4.00;2.00;;;;;;;8.76;71.68;99695.41;24599;1322;3067734;-70
2022/10/11 07:12:16;;;;;;;5.10;2.10;;;;;;;8.76;71.95;99702.56;24536;1323;3026147;-69
2022/10/11 07:14:45;;;;;;;4.90;2.20;;;;;;;9.38;70.75;99698.73;24636;1331;3049266;-70
2022/10/11 07:17:19;;;;;;;3.90;2.50;;;;;;;9.79;68.84;99696.77;24539;1333;3068372;-71
2022/10/11 07:19:48;;;;;;;6.00;2.80;;;;;;;9.78;68.40;99697.35;24626;1340;3025976;-70
2022/10/11 07:22:17;;;;;;;6.10;2.60;;;;;;;9.87;68.03;99700.72;24590;1326;3048204;-67
2022/10/11 07:24:47;;;;;;;4.30;2.30;;;;;;;9.78;68.30;99694.20;24531;1331;3026612;-71
2022/10/11 07:27:16;;;;;;;6.30;2.10;;;;;;;9.70;68.56;99698.99;24574;1330;3052775;-68
2022/10/11 07:29:46;;;;;;;4.00;2.10;;;;;;;9.61;68.52;99708.23;24591;1330;3026749;-69
2022/10/11 07:32:15;;;;;;;5.00;2.60;;;;;;;9.38;69.44;99702.80;24612;1333;3026317;-70
2022/10/11 07:34:45;;;;;;;4.20;2.00;;;;;;;9.43;69.64;99700.08;24622;1330;3027085;-70
2022/10/11 07:37:15;;;;;;;7.50;3.00;;;;;;;9.33;69.76;99705.14;24599;1337;3026513;-71
2022/10/11 07:39:44;;;;;;;6.30;2.80;;;;;;;9.41;69.37;99706.27;24548;1329;3069330;-70
2022/10/11 07:42:13;;;;;;;4.60;2.80;;;;;;;9.48;69.63;99702.45;24535;1327;3029677;-70
2022/10/11 07:44:42;;;;;;;7.10;3.30;;;;;;;9.44;69.71;99704.91;24623;1323;3026219;-69
2022/10/11 07:47:11;;;;;;;7.40;2.70;;;;;;;9.44;69.93;99705.44;24653;1330;3069349;-73
2022/10/11 07:49:41;;;;;;;10.10;3.30;;;;;;;9.51;69.96;99703.00;24641;1330;3028041;-74
2022/10/11 07:52:10;;;;;;;7.60;3.60;;;;;;;9.54;69.53;99712.93;24708;1323;3028592;-72
2022/10/11 07:54:39;;;;;;;8.50;3.40;;;;;;;9.55;70.03;99703.44;24591;1336;3069917;-71
2022/10/11 07:57:08;;;;;;;5.70;3.00;;;;;;;9.69;69.87;99699.25;24631;1337;3026514;-70
2022/10/11 07:59:38;;;;;;;7.80;3.30;;;;;;;9.79;69.79;99699.25;24564;1329;3028889;-69
2022/10/11 08:02:10;;;;;;;6.50;2.90;;;;;;;9.86;69.54;99697.63;24695;1327;3026545;-73
2022/10/11 08:04:40;;;;;;;7.60;1.50;;;;;;;10.03;69.46;99698.98;24644;1330;3049739;-72
2022/10/11 08:07:09;;;;;;;3.00;1.50;;;;;;;10.72;67.56;99697.41;24708;1329;3026155;-73
2022/10/11 08:09:38;;;;;;;9.90;2.10;;;;;;;11.35;65.66;99689.90;24549;1322;3068699;-67
2022/10/11 08:12:08;;;;;;;3.10;1.70;;;;;;;11.48;64.82;99694.23;24637;1330;3028165;-70
2022/10/11 08:14:40;;;;;;;5.00;2.30;;;;;;;11.40;64.94;99694.88;24560;1321;3029250;-70
2022/10/11 08:17:09;;;;;;;2.30;1.60;;;;;;;11.26;64.79;99702.18;24685;1322;3027584;-67
2022/10/11 08:19:38;;;;;;;2.70;1.60;;;;;;;11.00;65.48;99716.30;24619;1324;3028975;-69
2022/10/11 08:22:07;;;;;;;3.00;1.40;;;;;;;10.76;66.50;99708.98;24674;1340;3056788;-68
2022/10/11 08:24:36;;;;;;;3.00;1.70;;;;;;;10.66;66.70;99705.51;24605;1329;3028325;-70
2022/10/11 08:27:05;;;;;;;3.00;1.50;;;;;;;10.48;67.23;99705.65;24724;1330;3049144;-72
2022/10/11 08:29:35;;;;;;;2.00;1.10;;;;;;;10.61;67.25;99701.61;24639;1324;3029129;-67
2022/10/11 08:32:04;;;;;;;3.00;1.60;;;;;;;10.59;67.17;99704.30;24620;1323;3025887;-71
2022/10/11 08:34:34;;;;;;;6.20;2.10;;;;;;;10.57;67.22;99702.67;24519;1337;3050435;-72
2022/10/11 08:37:03;;;;;;;3.60;2.00;;;;;;;10.66;67.21;99708.68;24615;1316;3027013;-66
2022/10/11 08:39:32;;;;;;;6.60;2.40;;;;;;;10.80;67.24;99702.43;24546;1329;3068457;-69
2022/10/11 08:42:04;;;;;;;3.50;1.90;;;;;;;11.03;66.96;99706.20;24625;1324;3025777;-74
2022/10/11 08:44:49;;;;;;;3.60;1.70;;;;;;;10.97;66.71;99712.81;24666;1330;3048865;-73
2022/10/11 08:47:32;;;;;;;6.40;1.90;;;;;;;10.85;67.13;99705.63;24577;1323;3070117;-70
2022/10/11 08:50:01;;;;;;;3.00;1.80;;;;;;;10.94;67.32;99701.44;24490;1330;3050908;-66
2022/10/11 08:52:36;;;;;;;2.30;1.50;;;;;;;11.07;67.19;99706.45;24555;1329;3025723;-67
2022/10/11 08:55:39;;;;;;;3.30;1.50;;;;;;;11.09;67.27;99703.03;24567;1330;3070892;-70
2022/10/11 08:58:11;;;;;;;5.90;1.80;;;;;;;11.28;66.73;99706.13;24502;1335;3050943;-65
2022/10/11 09:00:40;;;;;;;2.00;1.10;;;;;;;11.31;66.80;99704.70;24573;1331;3026817;-63
2022/10/11 09:03:27;;;;;;;2.40;1.30;;;;;;;11.24;66.67;99710.91;24529;1326;3029752;-66
2022/10/11 09:06:20;;;;;;;1.60;1.30;;;;;;;11.24;66.86;99706.52;24557;1337;3051800;-65
2022/10/11 09:09:08;;;;;;;2.20;1.40;;;;;;;11.51;66.03;99711.38;24655;1331;3057695;-70
2022/10/11 09:11:44;;;;;;;3.00;1.60;;;;;;;11.48;65.95;99709.50;24574;1330;3052165;-69
2022/10/11 09:14:43;;;;;;;2.80;1.90;;;;;;;11.41;66.32;99707.98;24653;1330;3053870;-71
2022/10/11 09:17:12;;;;;;;3.90;2.00;;;;;;;11.56;66.19;99710.24;24551;1336;3052836;-68
2022/10/11 09:20:17;;;;;;;6.60;1.50;;;;;;;11.47;66.10;99704.77;24566;1340;3026597;-65
2022/10/11 09:22:46;;;;;;;;;;;;;;;11.48;66.59;99707.02;24529;1326;3050656;-72
2022/10/11 09:25:24;;;;;;;3.00;1.60;;;;;;;11.61;65.97;99706.73;24643;1333;3026302;-68
2022/10/11 09:28:34;;;;;;;3.20;1.50;;;;;;;11.74;65.88;99706.67;24615;1333;3051552;-70
2022/10/11 09:31:03;;;;;;;3.40;1.90;;;;;;;11.88;65.57;99705.29;24620;1333;3049719;-69
2022/10/11 09:33:40;;;;;;;2.60;1.40;;;;;;;11.98;65.21;99703.67;24530;1328;3026507;-68
2022/10/11 09:36:21;;;;;;;2.50;1.60;;;;;;;12.01;65.03;99701.52;24568;1334;3050028;-71
2022/10/11 09:39:15;;;;;;;3.80;1.70;;;;;;;12.12;64.83;99698.52;24624;1330;3056965;-76
2022/10/11 09:42:06;;;;;;;2.40;1.40;;;;;;;12.06;64.78;99704.53;24585;1323;3052911;-70
2022/10/11 09:44:49;;;;;;;4.80;1.30;;;;;;;12.19;64.26;99709.71;24619;1340;3053373;-73
2022/10/11 09:47:28;;;;;;;3.00;1.30;;;;;;;12.16;64.75;99704.30;24638;1323;3054578;-73
2022/10/11 09:50:05;;;;;;;3.30;1.60;;;;;;;12.26;64.41;99703.63;24671;1329;3053695;-72
2022/10/11 09:52:34;;;;;;;3.10;1.90;;;;;;;12.31;64.17;99704.52;24572;1323;3049171;-74
2022/10/11 09:55:03;;;;;;;3.60;2.10;;;;;;;12.40;63.90;99691.88;24586;1333;3026359;-71
2022/10/11 09:57:34;;;;;;;2.70;1.50;;;;;;;12.67;63.18;99696.92;24571;1330;3052488;-72
2022/10/11 10:00:20;;;;;;;4.20;1.40;;;;;;;12.70;62.80;99704.65;24632;1322;3026102;-70
2022/10/11 10:02:55;;;;;;;3.30;1.70;;;;;;;12.61;63.48;99694.02;24528;1340;3070305;-73
2022/10/11 10:05:25;;;;;;;3.70;1.80;;;;;;;12.68;63.11;99703.92;24555;1331;3051308;-72
2022/10/11 10:08:04;;;;;;;5.50;2.20;;;;;;;12.74;63.16;99697.88;24592;1330;3026576;-71
2022/10/11 10:10:41;;;;;;;5.50;2.60;;;;;;;12.80;63.28;99696.96;24575;1330;3053024;-71
2022/10/11 10:13:21;;;;;;;3.60;1.70;;;;;;;12.95;62.85;99703.56;24576;1322;3053860;-71
2022/10/11 10:15:57;;;;;;;2.90;1.30;;;;;;;12.98;62.32;99703.33;24651;1333;3052493;-72
2022/10/11 10:18:31;;;;;;;2.20;1.20;;;;;;;12.91;62.19;99706.11;23886;1335;4476182;-73
2022/10/11 10:21:01;;;;;;;2.80;1.20;;;;;;;12.79;62.21;99720.23;24567;1330;3053025;-70
2022/10/11 10:23:32;;;;;;;2.60;1.20;;;;;;;12.76;62.14;99697.98;24521;1334;3027921;-71
2022/10/11 10:26:18;;;;;;;2.60;1.40;;;;;;;13.03;62.21;99695.67;24591;1333;3026580;-71
2022/10/11 10:29:07;;;;;;;8.60;2.20;;;;;;;13.12;62.03;99702.78;24494;1323;3048724;-73
2022/10/11 10:31:49;;;;;;;6.40;1.60;;;;;;;13.08;62.13;99699.02;24544;1330;3069930;-69
2022/10/11 10:34:21;;;;;;;4.70;1.60;;;;;;;13.27;61.24;99702.27;24557;1331;3050563;-68
2022/10/11 10:36:57;;;;;;;3.80;1.40;;;;;;;13.28;61.55;99707.33;24630;1330;3026787;-70
2022/10/11 10:39:29;;;;;;;8.10;1.60;;;;;;;13.26;61.32;99698.84;24576;1330;3053632;-72
2022/10/11 10:41:59;;;;;;;3.10;1.50;;;;;;;13.37;61.14;99695.66;24549;1332;3028684;-70
2022/10/11 10:44:29;;;;;;;4.10;1.30;;;;;;;13.50;61.01;99695.80;24579;1329;3027911;-71
2022/10/11 10:47:10;;;;;;;3.50;1.50;;;;;;;13.36;61.09;99697.63;24536;1330;3027968;-72
2022/10/11 10:49:43;;;;;;;2.50;1.40;;;;;;;13.42;61.07;99693.91;24601;1323;3049404;-71
2022/10/11 10:52:24;;;;;;;9.80;2.10;;;;;;;13.54;60.63;99687.13;24542;1329;3069794;-71
2022/10/11 10:55:03;;;;;;;8.30;2.40;;;;;;;13.72;60.46;99695.38;24578;1330;3051581;-73
2022/10/11 10:57:51;;;;;;;6.10;2.00;;;;;;;13.74;60.28;99696.48;24608;1324;3058279;-72
2022/10/11 11:00:21;;;;;;;7.10;2.70;;;;;;;13.77;60.26;99695.52;24580;1323;3051752;-70
2022/10/11 11:03:07;;;;;;;4.50;1.70;;;;;;;13.94;60.11;99690.14;24520;1324;3026322;-73
2022/10/11 11:05:43;;;;;;;3.80;2.20;;;;;;;13.75;59.98;99702.71;24549;1332;3053040;-69
2022/10/11 11:08:53;;;;;;;4.00;1.40;;;;;;;13.70;60.26;99705.34;24605;1323;3052491;-73
2022/10/11 11:11:33;;;;;;;2.20;1.10;;;;;;;13.58;60.51;99693.33;24621;1340;3051365;-70
2022/10/11 11:14:06;;;;;;;2.90;1.40;;;;;;;13.62;60.39;99694.81;24578;1323;3070227;-73
2022/10/11 11:16:53;;;;;;;4.90;1.50;;;;;;;13.72;60.52;99698.88;24586;1337;3050820;-72
2022/10/11 11:20:00;;;;;;;1.80;1.00;;;;;;;13.78;60.28;99696.73;24551;1329;3056437;-70
2022/10/11 11:22:38;;;;;;;6.40;1.80;;;;;;;13.88;59.85;99689.48;24596;1329;3052684;-72
2022/10/11 11:25:27;;;;;;;2.90;1.30;;;;;;;13.89;60.09;99696.31;24556;1337;3053504;-71
2022/10/11 11:28:34;;;;;;;4.20;1.80;;;;;;;13.85;60.21;99697.08;24587;1322;3054000;-72
2022/10/11 11:31:24;;;;;;;3.40;1.90;;;;;;;13.96;60.07;99697.90;24626;1330;3052089;-73
2022/10/11 11:34:18;;;;;;;3.40;1.70;;;;;;;14.22;59.50;99694.63;24605;1329;3048852;-74
2022/10/11 11:36:51;;;;;;;5.00;1.50;;;;;;;14.24;58.89;99703.45;24588;1323;3070609;-71
2022/10/11 11:39:33;;;;;;;2.70;1.30;;;;;;;14.11;59.10;99698.23;24605;1330;3049802;-71
2022/10/11 15:16:21;;;;;;;4.30;2.00;;;;;;;13.27;62.64;99799.23;30848;1325;3013557;-72
2022/10/11 15:18:50;;;;;;;4.80;2.00;;;;;;;13.22;62.42;99801.45;24495;1328;3026414;-70
2022/10/11 15:21:22;;;;;;;4.20;1.70;;;;;;;13.22;62.53;99806.35;24536;1329;3027315;-71
2022/10/11 15:23:51;;;;;;;2.40;1.30;;;;;;;13.19;62.78;99811.73;24561;1327;3028326;-71
2022/10/11 15:26:26;;;;;;;2.30;1.50;;;;;;;13.14;63.03;99810.44;24570;1340;3027129;-73